Sidney-Richland, MT

11:37 PM MDT on April 21, 2018 (GMT -0600)
Sidney-Richland Municipal

Weather History for KSDY - February, 2012

Change the Weather History Date:

Wednesday, February 15, 2012

  Actual Average Record
Temperature  
Mean Temperature 24 °F 23 °F  
Max Temperature 30 °F 33 °F 54 °F (1998)
Min Temperature 17 °F 12 °F -23 °F (1993)
Degree Days  
Heating Degree Days 42 42  
Month to date heating degree days 1186  
Year to date heating degree days 2661  
Cooling Degree Days 0 0  
Month to date cooling degree days 0  
Year to date cooling degree days 0  
Since 1 July cooling degree days 0  
Moisture  
Dew Point 18 °F    
Average Humidity 77    
Maximum Humidity 100    
Minimum Humidity 60    
Precipitation  
Precipitation 0.00 in 0.01 in 0.01 in (2000)
Month to date precipitation 0.33  
Year to date precipitation 0.74  
Sea Level Pressure  
Sea Level Pressure 29.99 in    
Wind  
Wind Speed 10 mph (WNW)    
Max Wind Speed 17 mph    
Max Gust Speed 20 mph    
Visibility 10 miles    
Events      
T = Trace of Precipitation, MM = Missing Value Source: NWS Daily Summary

Daily Weather History Graph

Daily Weather History Graph

Search for Another Location

Airport or City:

Astronomy

Feb. 15, 2012 Rise Set
Actual Time 7:03 AM MST 5:19 PM MST
Civil Twilight 6:31 AM MST 5:51 PM MST
Nautical Twilight 5:55 AM MST 6:27 PM MST
Astronomical Twilight 5:19 AM MST 7:02 PM MST
Moon 2:12 AM MST (2/15) 11:02 AM MST (2/15)
Length of Visible Light 11h 19m
Length of Day
10h 15m
Last Quarter, 38% of the Moon is Illuminated
Feb 15
Last Quarter
Feb 21
New
Feb 29
First Quarter
Mar 8
Full
Mar 14
Last Quarter

Hourly Weather History & Observations

Time (MST) Temp. Windchill Dew Point Humidity Pressure Visibility Wind Dir Wind Speed Gust Speed Precip Events Conditions
12:35 AM 26.6 °F 19.1 °F 26.6 °F 100% 29.86 in 5.0 mi WNW 6.9 mph - N/A   Overcast
12:55 AM 28.4 °F 21.2 °F 24.8 °F 86% 29.86 in 10.0 mi WNW 6.9 mph - N/A   Overcast
1:15 AM 28.4 °F 19.1 °F 24.8 °F 86% 29.87 in 10.0 mi NW 10.4 mph - N/A   Overcast
1:35 AM 28.4 °F 20.4 °F 24.8 °F 86% 29.88 in 10.0 mi NW 8.1 mph - N/A   Overcast
1:55 AM 26.6 °F 18.2 °F 24.8 °F 93% 29.89 in 10.0 mi NW 8.1 mph - N/A   Overcast
2:15 AM 26.6 °F 17.5 °F 24.8 °F 93% 29.89 in 8.0 mi NW 9.2 mph - N/A   Overcast
2:35 AM 26.6 °F 16.8 °F 24.8 °F 93% 29.90 in 5.0 mi NW 10.4 mph - N/A   Overcast
2:55 AM 26.6 °F 16.2 °F 23.0 °F 86% 29.90 in 10.0 mi WNW 11.5 mph - N/A   Mostly Cloudy
3:15 AM 24.8 °F 16.1 °F 21.2 °F 86% 29.91 in 10.0 mi WNW 8.1 mph - N/A   Clear
3:35 AM 24.8 °F 15.3 °F 21.2 °F 86% 29.91 in 10.0 mi WNW 9.2 mph - N/A   Mostly Cloudy
3:55 AM 24.8 °F 16.9 °F 21.2 °F 86% 29.91 in 10.0 mi WNW 6.9 mph - N/A   Overcast
4:15 AM 24.8 °F 14.6 °F 21.2 °F 86% 29.93 in 10.0 mi West 10.4 mph - N/A   Overcast
4:35 AM 24.8 °F 13.4 °F 21.2 °F 86% 29.93 in 10.0 mi West 12.7 mph - N/A   Mostly Cloudy
5:15 AM 21.2 °F 10.9 °F 17.6 °F 86% 29.93 in 10.0 mi WNW 9.2 mph - N/A   Clear
5:55 AM 17.6 °F 4.3 °F 14.0 °F 86% 29.94 in 10.0 mi West 12.7 mph - N/A   Clear
6:15 AM 17.6 °F 5.0 °F 12.2 °F 79% 29.95 in 10.0 mi WNW 11.5 mph - N/A   Clear
6:35 AM 17.6 °F 5.0 °F 12.2 °F 79% 29.95 in 10.0 mi WNW 11.5 mph - N/A   Clear
6:55 AM 17.6 °F 5.0 °F 15.8 °F 93% 29.96 in 10.0 mi NW 11.5 mph - N/A   Clear
7:35 AM 17.6 °F 3.2 °F 14.0 °F 86% 29.97 in 10.0 mi West 15.0 mph - N/A   Clear
7:55 AM 19.4 °F 4.5 °F 14.0 °F 80% 29.97 in 10.0 mi West 17.3 mph - N/A   Clear
8:15 AM 21.2 °F 8.9 °F 15.8 °F 80% 29.98 in 10.0 mi WNW 12.7 mph - N/A   Clear
8:35 AM 21.2 °F 8.9 °F 15.8 °F 80% 29.98 in 10.0 mi WNW 12.7 mph - N/A   Clear
8:56 AM 24.8 °F 13.4 °F 17.6 °F 74% 29.98 in 10.0 mi WNW 12.7 mph - N/A   Scattered Clouds
9:15 AM 24.8 °F 11.9 °F 17.6 °F 74% 29.98 in 10.0 mi West 16.1 mph - N/A   Partly Cloudy
9:35 AM 24.8 °F 12.9 °F 17.6 °F 74% 29.99 in 10.0 mi WNW 13.8 mph - N/A   Clear
9:55 AM 24.8 °F 14.0 °F 17.6 °F 74% 29.99 in 10.0 mi WNW 11.5 mph - N/A   Clear
10:15 AM 24.8 °F 12.4 °F 19.4 °F 80% 30.00 in 10.0 mi WNW 15.0 mph - N/A   Partly Cloudy
10:35 AM 26.6 °F 13.8 °F 19.4 °F 74% 30.00 in 10.0 mi West 17.3 mph - N/A   Clear
10:55 AM 28.4 °F 17.5 °F 19.4 °F 69% 30.00 in 10.0 mi WNW 13.8 mph - N/A   Mostly Cloudy
11:15 AM 28.4 °F 18.5 °F 19.4 °F 69% 30.01 in 10.0 mi WNW 11.5 mph - N/A   Overcast
11:55 AM 30.2 °F 20.2 °F 19.4 °F 64% 30.00 in 10.0 mi West 12.7 mph 17.3 mph N/A   Overcast
12:15 PM 30.2 °F 20.8 °F 17.6 °F 60% 30.00 in 10.0 mi West 11.5 mph - N/A   Overcast
12:35 PM 30.2 °F 20.2 °F 19.4 °F 64% 30.00 in 10.0 mi West 12.7 mph - N/A   Overcast
12:55 PM 30.2 °F 19.8 °F 19.4 °F 64% 30.00 in 10.0 mi West 13.8 mph - N/A   Overcast
1:15 PM 30.2 °F 20.8 °F 19.4 °F 64% 30.00 in 10.0 mi West 11.5 mph 16.1 mph N/A   Overcast
1:55 PM 30.2 °F 20.2 °F 19.4 °F 64% 30.01 in 10.0 mi WNW 12.7 mph - N/A   Overcast
2:15 PM 30.2 °F 19.8 °F 19.4 °F 64% 30.01 in 10.0 mi WNW 13.8 mph 19.6 mph N/A   Overcast
2:35 PM 30.2 °F 19.8 °F 17.6 °F 60% 30.02 in 10.0 mi WNW 13.8 mph - N/A   Overcast
2:55 PM 30.2 °F 20.2 °F 19.4 °F 64% 30.02 in 10.0 mi NW 12.7 mph - N/A   Overcast
3:15 PM 30.2 °F 20.8 °F 19.4 °F 64% 30.03 in 10.0 mi WNW 11.5 mph - N/A   Scattered Clouds
3:35 PM 30.2 °F 19.3 °F 19.4 °F 64% 30.03 in 10.0 mi WNW 15.0 mph - N/A   Clear
3:55 PM 30.2 °F 20.2 °F 19.4 °F 64% 30.03 in 10.0 mi WNW 12.7 mph - N/A   Clear
4:15 PM 30.2 °F 21.9 °F 17.6 °F 60% 30.03 in 10.0 mi WNW 9.2 mph - N/A   Clear
4:55 PM 26.6 °F 19.1 °F 17.6 °F 69% 30.05 in 10.0 mi WNW 6.9 mph - N/A   Clear
5:15 PM 26.6 °F 20.0 °F 17.6 °F 69% 30.05 in 10.0 mi WNW 5.8 mph - N/A   Clear
5:35 PM 24.8 °F 14.6 °F 17.6 °F 74% 30.06 in 10.0 mi WNW 10.4 mph - N/A   Clear
5:55 PM 24.8 °F 14.6 °F 17.6 °F 74% 30.07 in 10.0 mi WNW 10.4 mph - N/A   Clear
6:15 PM 23.0 °F 11.7 °F 15.8 °F 74% 30.07 in 10.0 mi WNW 11.5 mph - N/A   Clear
6:35 PM 21.2 °F 10.1 °F 15.8 °F 80% 30.08 in 10.0 mi WNW 10.4 mph - N/A   Partly Cloudy
6:55 PM 21.2 °F 10.9 °F 14.0 °F 74% 30.08 in 10.0 mi NW 9.2 mph - N/A   Clear
7:35 PM 21.2 °F 9.5 °F 15.8 °F 80% 30.09 in 10.0 mi WNW 11.5 mph - N/A   Overcast
7:55 PM 21.2 °F 10.1 °F 15.8 °F 80% 30.08 in 10.0 mi NW 10.4 mph - N/A   Overcast
8:15 PM 21.2 °F 10.1 °F 14.0 °F 74% 30.08 in 10.0 mi WNW 10.4 mph - N/A   Mostly Cloudy
8:35 PM 21.2 °F 11.7 °F 14.0 °F 74% 30.09 in 10.0 mi NW 8.1 mph - N/A   Overcast
8:55 PM 21.2 °F 8.9 °F 15.8 °F 80% 30.08 in 10.0 mi West 12.7 mph - N/A   Mostly Cloudy
9:15 PM 21.2 °F 8.3 °F 17.6 °F 86% 30.09 in 10.0 mi West 13.8 mph - N/A   Overcast
9:35 PM 21.2 °F 8.9 °F 15.8 °F 80% 30.08 in 10.0 mi West 12.7 mph - N/A   Overcast
9:55 PM 23.0 °F 12.4 °F 17.6 °F 80% 30.09 in 10.0 mi West 10.4 mph - N/A   Overcast
10:55 PM 21.2 °F 12.6 °F 15.8 °F 80% 30.09 in 10.0 mi South 6.9 mph - N/A   Overcast
11:35 PM 21.2 °F 12.6 °F 15.8 °F 80% 30.09 in 10.0 mi SSW 6.9 mph - N/A   Overcast
11:55 PM 21.2 °F 10.9 °F 15.8 °F 80% 30.09 in 10.0 mi South 9.2 mph - N/A   Overcast